sensor_id;sensor_type;location;lat;lon;timestamp;P1;durP1;ratioP1;P2;durP2;ratioP2
38935;SDS011;25541;47.458;9.644;2022-07-15T02:48:21;3.35;;;1.27;;
38935;SDS011;25541;47.458;9.644;2022-07-15T02:50:47;2.45;;;1.13;;
38935;SDS011;25541;47.458;9.644;2022-07-15T02:53:14;3.88;;;1.05;;
38935;SDS011;25541;47.458;9.644;2022-07-15T02:55:40;5.28;;;1.40;;
38935;SDS011;25541;47.458;9.644;2022-07-15T02:58:07;7.97;;;1.13;;
38935;SDS011;25541;47.458;9.644;2022-07-15T03:00:33;2.47;;;1.00;;
38935;SDS011;25541;47.458;9.644;2022-07-15T03:02:59;7.40;;;1.40;;
38935;SDS011;25541;47.458;9.644;2022-07-15T03:05:25;3.03;;;1.20;;
38935;SDS011;25541;47.458;9.644;2022-07-15T03:07:50;4.25;;;1.33;;
38935;SDS011;25541;47.458;9.644;2022-07-15T03:10:16;4.10;;;1.13;;
38935;SDS011;25541;47.458;9.644;2022-07-15T03:12:42;2.67;;;1.02;;
38935;SDS011;25541;47.458;9.644;2022-07-15T03:15:08;2.72;;;0.95;;
38935;SDS011;25541;47.458;9.644;2022-07-15T03:17:35;3.95;;;1.15;;
38935;SDS011;25541;47.458;9.644;2022-07-15T03:20:00;4.28;;;0.98;;
38935;SDS011;25541;47.458;9.644;2022-07-15T03:22:26;3.58;;;1.02;;
38935;SDS011;25541;47.458;9.644;2022-07-15T03:24:54;3.88;;;1.15;;
38935;SDS011;25541;47.458;9.644;2022-07-15T03:27:20;4.22;;;1.00;;
38935;SDS011;25541;47.458;9.644;2022-07-15T03:29:46;3.53;;;1.02;;
38935;SDS011;25541;47.458;9.644;2022-07-15T03:32:12;2.75;;;0.90;;
38935;SDS011;25541;47.458;9.644;2022-07-15T03:34:41;2.63;;;1.23;;
38935;SDS011;25541;47.458;9.644;2022-07-15T03:37:07;2.58;;;1.13;;
38935;SDS011;25541;47.458;9.644;2022-07-15T03:39:33;5.55;;;1.08;;
38935;SDS011;25541;47.458;9.644;2022-07-15T03:41:59;4.03;;;1.63;;
38935;SDS011;25541;47.458;9.644;2022-07-15T03:44:24;4.10;;;1.13;;
38935;SDS011;25541;47.458;9.644;2022-07-15T03:46:50;6.85;;;1.45;;
38935;SDS011;25541;47.458;9.644;2022-07-15T03:49:16;4.65;;;1.23;;
38935;SDS011;25541;47.458;9.644;2022-07-15T03:51:42;3.78;;;0.85;;
38935;SDS011;25541;47.458;9.644;2022-07-15T03:54:08;5.03;;;1.20;;
38935;SDS011;25541;47.458;9.644;2022-07-15T03:56:34;7.30;;;1.23;;
38935;SDS011;25541;47.458;9.644;2022-07-15T03:59:00;2.38;;;1.02;;
38935;SDS011;25541;47.458;9.644;2022-07-15T04:01:26;4.35;;;1.02;;
38935;SDS011;25541;47.458;9.644;2022-07-15T04:03:52;6.45;;;1.15;;
38935;SDS011;25541;47.458;9.644;2022-07-15T04:06:18;7.53;;;1.10;;
38935;SDS011;25541;47.458;9.644;2022-07-15T04:08:45;4.13;;;0.85;;
38935;SDS011;25541;47.458;9.644;2022-07-15T04:11:11;4.72;;;1.10;;
38935;SDS011;25541;47.458;9.644;2022-07-15T04:13:38;2.50;;;0.88;;
38935;SDS011;25541;47.458;9.644;2022-07-15T04:16:05;6.63;;;0.90;;
38935;SDS011;25541;47.458;9.644;2022-07-15T04:18:32;3.95;;;1.13;;
38935;SDS011;25541;47.458;9.644;2022-07-15T04:20:58;3.47;;;1.00;;
38935;SDS011;25541;47.458;9.644;2022-07-15T04:23:24;3.83;;;1.10;;
38935;SDS011;25541;47.458;9.644;2022-07-15T04:25:50;5.28;;;1.20;;
38935;SDS011;25541;47.458;9.644;2022-07-15T04:28:17;3.78;;;1.02;;
38935;SDS011;25541;47.458;9.644;2022-07-15T04:30:44;4.35;;;1.10;;
38935;SDS011;25541;47.458;9.644;2022-07-15T04:33:09;3.85;;;1.20;;
38935;SDS011;25541;47.458;9.644;2022-07-15T04:35:35;3.22;;;0.90;;
38935;SDS011;25541;47.458;9.644;2022-07-15T04:38:02;7.05;;;0.98;;
38935;SDS011;25541;47.458;9.644;2022-07-15T04:40:27;2.35;;;1.02;;
38935;SDS011;25541;47.458;9.644;2022-07-15T04:42:53;3.83;;;1.38;;
38935;SDS011;25541;47.458;9.644;2022-07-15T04:45:19;4.45;;;1.27;;
38935;SDS011;25541;47.458;9.644;2022-07-15T04:47:45;4.50;;;1.33;;
38935;SDS011;25541;47.458;9.644;2022-07-15T04:50:10;6.38;;;0.93;;
38935;SDS011;25541;47.458;9.644;2022-07-15T04:52:55;2.50;;;0.82;;
38935;SDS011;25541;47.458;9.644;2022-07-15T04:55:21;9.65;;;1.15;;
38935;SDS011;25541;47.458;9.644;2022-07-15T04:57:46;3.70;;;1.00;;
38935;SDS011;25541;47.458;9.644;2022-07-15T05:00:12;5.25;;;1.25;;
38935;SDS011;25541;47.458;9.644;2022-07-15T05:02:38;3.10;;;1.08;;
38935;SDS011;25541;47.458;9.644;2022-07-15T05:05:04;4.00;;;0.93;;
38935;SDS011;25541;47.458;9.644;2022-07-15T05:07:31;2.90;;;1.00;;
38935;SDS011;25541;47.458;9.644;2022-07-15T05:09:57;5.43;;;1.00;;
38935;SDS011;25541;47.458;9.644;2022-07-15T05:12:23;5.68;;;1.20;;
38935;SDS011;25541;47.458;9.644;2022-07-15T05:14:49;8.93;;;1.13;;
38935;SDS011;25541;47.458;9.644;2022-07-15T05:17:14;4.88;;;1.00;;
38935;SDS011;25541;47.458;9.644;2022-07-15T05:19:40;4.20;;;1.23;;
38935;SDS011;25541;47.458;9.644;2022-07-15T05:22:06;5.80;;;1.88;;
38935;SDS011;25541;47.458;9.644;2022-07-15T05:24:31;5.07;;;0.98;;
38935;SDS011;25541;47.458;9.644;2022-07-15T05:26:57;4.30;;;1.00;;
38935;SDS011;25541;47.458;9.644;2022-07-15T05:29:24;6.13;;;1.33;;
38935;SDS011;25541;47.458;9.644;2022-07-15T05:31:50;5.15;;;0.95;;
38935;SDS011;25541;47.458;9.644;2022-07-15T05:34:16;4.63;;;1.13;;
38935;SDS011;25541;47.458;9.644;2022-07-15T05:36:42;4.82;;;1.20;;
38935;SDS011;25541;47.458;9.644;2022-07-15T05:39:09;7.00;;;1.38;;
38935;SDS011;25541;47.458;9.644;2022-07-15T05:41:34;4.38;;;1.20;;
38935;SDS011;25541;47.458;9.644;2022-07-15T05:44:00;2.60;;;1.10;;
38935;SDS011;25541;47.458;9.644;2022-07-15T05:46:26;2.92;;;0.90;;
38935;SDS011;25541;47.458;9.644;2022-07-15T05:48:52;6.68;;;1.23;;
38935;SDS011;25541;47.458;9.644;2022-07-15T05:51:17;5.82;;;1.40;;
38935;SDS011;25541;47.458;9.644;2022-07-15T05:53:43;5.03;;;1.13;;
38935;SDS011;25541;47.458;9.644;2022-07-15T05:56:09;4.88;;;1.15;;
38935;SDS011;25541;47.458;9.644;2022-07-15T05:58:35;4.45;;;1.27;;
38935;SDS011;25541;47.458;9.644;2022-07-15T06:01:01;3.45;;;1.10;;
38935;SDS011;25541;47.458;9.644;2022-07-15T06:03:27;3.60;;;1.10;;
38935;SDS011;25541;47.458;9.644;2022-07-15T06:05:53;3.95;;;1.17;;
38935;SDS011;25541;47.458;9.644;2022-07-15T06:08:19;5.68;;;1.50;;
38935;SDS011;25541;47.458;9.644;2022-07-15T06:10:45;3.47;;;0.95;;
38935;SDS011;25541;47.458;9.644;2022-07-15T06:13:11;4.95;;;1.27;;
38935;SDS011;25541;47.458;9.644;2022-07-15T06:15:37;3.72;;;1.10;;
38935;SDS011;25541;47.458;9.644;2022-07-15T06:18:03;3.88;;;0.93;;
38935;SDS011;25541;47.458;9.644;2022-07-15T06:20:29;3.55;;;1.08;;
38935;SDS011;25541;47.458;9.644;2022-07-15T06:22:55;5.25;;;1.10;;
38935;SDS011;25541;47.458;9.644;2022-07-15T06:25:21;3.97;;;1.05;;
38935;SDS011;25541;47.458;9.644;2022-07-15T06:27:47;5.78;;;1.45;;
38935;SDS011;25541;47.458;9.644;2022-07-15T06:30:13;3.78;;;1.42;;
38935;SDS011;25541;47.458;9.644;2022-07-15T06:32:39;7.13;;;1.38;;
38935;SDS011;25541;47.458;9.644;2022-07-15T06:35:05;3.00;;;0.93;;
38935;SDS011;25541;47.458;9.644;2022-07-15T06:37:31;2.95;;;1.05;;
38935;SDS011;25541;47.458;9.644;2022-07-15T06:39:58;7.25;;;1.08;;
38935;SDS011;25541;47.458;9.644;2022-07-15T06:42:24;4.00;;;1.13;;
38935;SDS011;25541;47.458;9.644;2022-07-15T06:44:49;3.42;;;1.23;;
38935;SDS011;25541;47.458;9.644;2022-07-15T06:47:15;4.70;;;1.73;;
38935;SDS011;25541;47.458;9.644;2022-07-15T06:49:41;4.47;;;1.20;;
38935;SDS011;25541;47.458;9.644;2022-07-15T06:52:07;2.65;;;0.80;;
38935;SDS011;25541;47.458;9.644;2022-07-15T06:54:32;4.57;;;1.55;;
38935;SDS011;25541;47.458;9.644;2022-07-15T06:56:58;4.95;;;1.15;;
38935;SDS011;25541;47.458;9.644;2022-07-15T06:59:26;9.63;;;1.77;;
38935;SDS011;25541;47.458;9.644;2022-07-15T07:01:52;4.63;;;1.40;;
38935;SDS011;25541;47.458;9.644;2022-07-15T07:04:18;3.83;;;1.40;;
38935;SDS011;25541;47.458;9.644;2022-07-15T07:06:44;4.43;;;1.58;;
38935;SDS011;25541;47.458;9.644;2022-07-15T07:09:11;3.25;;;1.30;;
38935;SDS011;25541;47.458;9.644;2022-07-15T07:11:37;3.80;;;2.22;;
38935;SDS011;25541;47.458;9.644;2022-07-15T07:14:04;3.10;;;1.50;;
38935;SDS011;25541;47.458;9.644;2022-07-15T07:16:31;3.78;;;1.50;;
38935;SDS011;25541;47.458;9.644;2022-07-15T07:18:57;6.75;;;1.65;;
38935;SDS011;25541;47.458;9.644;2022-07-15T07:21:22;4.13;;;1.73;;
38935;SDS011;25541;47.458;9.644;2022-07-15T07:23:48;4.88;;;2.47;;
38935;SDS011;25541;47.458;9.644;2022-07-15T07:26:14;4.45;;;1.70;;
38935;SDS011;25541;47.458;9.644;2022-07-15T07:28:42;4.03;;;2.10;;
38935;SDS011;25541;47.458;9.644;2022-07-15T07:31:08;5.95;;;2.08;;
38935;SDS011;25541;47.458;9.644;2022-07-15T07:33:37;4.72;;;1.85;;
38935;SDS011;25541;47.458;9.644;2022-07-15T07:36:03;4.88;;;1.83;;
38935;SDS011;25541;47.458;9.644;2022-07-15T07:38:31;6.25;;;2.00;;
38935;SDS011;25541;47.458;9.644;2022-07-15T07:40:58;3.72;;;2.20;;
38935;SDS011;25541;47.458;9.644;2022-07-15T07:43:23;4.05;;;2.65;;
38935;SDS011;25541;47.458;9.644;2022-07-15T07:45:49;4.80;;;2.55;;
38935;SDS011;25541;47.458;9.644;2022-07-15T07:48:15;4.80;;;2.33;;
38935;SDS011;25541;47.458;9.644;2022-07-15T07:50:42;5.60;;;2.47;;
38935;SDS011;25541;47.458;9.644;2022-07-15T07:53:08;5.68;;;2.85;;
38935;SDS011;25541;47.458;9.644;2022-07-15T07:55:35;5.75;;;2.35;;
38935;SDS011;25541;47.458;9.644;2022-07-15T07:58:01;6.78;;;2.72;;
38935;SDS011;25541;47.458;9.644;2022-07-15T08:00:28;4.25;;;2.42;;
38935;SDS011;25541;47.458;9.644;2022-07-15T08:02:55;5.90;;;2.50;;
38935;SDS011;25541;47.458;9.644;2022-07-15T08:05:23;4.70;;;2.42;;
38935;SDS011;25541;47.458;9.644;2022-07-15T08:07:48;5.07;;;2.70;;
38935;SDS011;25541;47.458;9.644;2022-07-15T08:10:14;6.18;;;2.83;;
38935;SDS011;25541;47.458;9.644;2022-07-15T08:12:41;5.45;;;3.05;;
38935;SDS011;25541;47.458;9.644;2022-07-15T08:15:07;5.43;;;3.15;;
38935;SDS011;25541;47.458;9.644;2022-07-15T08:17:35;5.60;;;2.60;;
38935;SDS011;25541;47.458;9.644;2022-07-15T08:20:03;10.05;;;2.67;;
38935;SDS011;25541;47.458;9.644;2022-07-15T08:22:30;6.18;;;2.63;;
38935;SDS011;25541;47.458;9.644;2022-07-15T08:24:56;4.75;;;3.03;;
38935;SDS011;25541;47.458;9.644;2022-07-15T08:27:22;5.97;;;3.03;;
38935;SDS011;25541;47.458;9.644;2022-07-15T08:29:48;4.70;;;3.72;;
38935;SDS011;25541;47.458;9.644;2022-07-15T08:32:14;4.93;;;3.10;;
38935;SDS011;25541;47.458;9.644;2022-07-15T08:34:39;5.22;;;2.70;;
38935;SDS011;25541;47.458;9.644;2022-07-15T08:37:07;5.28;;;3.05;;
38935;SDS011;25541;47.458;9.644;2022-07-15T08:39:34;4.45;;;3.15;;
38935;SDS011;25541;47.458;9.644;2022-07-15T08:42:02;5.47;;;2.55;;
38935;SDS011;25541;47.458;9.644;2022-07-15T08:44:29;6.43;;;3.30;;
38935;SDS011;25541;47.458;9.644;2022-07-15T08:46:55;4.25;;;2.72;;
38935;SDS011;25541;47.458;9.644;2022-07-15T08:49:26;6.80;;;3.15;;
38935;SDS011;25541;47.458;9.644;2022-07-15T08:54:21;6.20;;;2.83;;
38935;SDS011;25541;47.458;9.644;2022-07-15T08:56:48;3.72;;;2.30;;
38935;SDS011;25541;47.458;9.644;2022-07-15T08:59:14;5.15;;;2.40;;
38935;SDS011;25541;47.458;9.644;2022-07-15T09:01:44;6.75;;;2.42;;
38935;SDS011;25541;47.458;9.644;2022-07-15T09:04:12;4.38;;;2.30;;
38935;SDS011;25541;47.458;9.644;2022-07-15T09:06:45;3.38;;;1.85;;
38935;SDS011;25541;47.458;9.644;2022-07-15T09:09:22;5.10;;;1.98;;
38935;SDS011;25541;47.458;9.644;2022-07-15T09:11:55;4.47;;;1.90;;
38935;SDS011;25541;47.458;9.644;2022-07-15T09:14:36;5.68;;;2.25;;
38935;SDS011;25541;47.458;9.644;2022-07-15T09:22:24;5.85;;;3.25;;
38935;SDS011;25541;47.458;9.644;2022-07-15T09:25:05;6.25;;;2.88;;
38935;SDS011;25541;47.458;9.644;2022-07-15T09:27:35;4.45;;;3.30;;
38935;SDS011;25541;47.458;9.644;2022-07-15T09:30:14;7.50;;;3.08;;
38935;SDS011;25541;47.458;9.644;2022-07-15T09:32:59;5.43;;;2.83;;
38935;SDS011;25541;47.458;9.644;2022-07-15T09:35:44;4.97;;;4.40;;
38935;SDS011;25541;47.458;9.644;2022-07-15T09:38:32;6.43;;;3.53;;
38935;SDS011;25541;47.458;9.644;2022-07-15T09:41:00;5.15;;;4.07;;
38935;SDS011;25541;47.458;9.644;2022-07-15T09:43:27;4.43;;;4.03;;
38935;SDS011;25541;47.458;9.644;2022-07-15T09:46:00;7.50;;;5.05;;
38935;SDS011;25541;47.458;9.644;2022-07-15T09:48:27;7.38;;;4.60;;
38935;SDS011;25541;47.458;9.644;2022-07-15T09:50:57;9.77;;;4.88;;
38935;SDS011;25541;47.458;9.644;2022-07-15T09:53:24;5.32;;;4.63;;
38935;SDS011;25541;47.458;9.644;2022-07-15T09:55:51;5.28;;;4.43;;
38935;SDS011;25541;47.458;9.644;2022-07-15T09:58:18;5.97;;;5.03;;
38935;SDS011;25541;47.458;9.644;2022-07-15T10:00:45;10.88;;;6.65;;
38935;SDS011;25541;47.458;9.644;2022-07-15T10:03:11;8.43;;;5.05;;
38935;SDS011;25541;47.458;9.644;2022-07-15T10:05:39;5.00;;;4.60;;
38935;SDS011;25541;47.458;9.644;2022-07-15T10:08:05;5.90;;;5.28;;
38935;SDS011;25541;47.458;9.644;2022-07-15T10:10:34;8.32;;;5.00;;
38935;SDS011;25541;47.458;9.644;2022-07-15T10:15:47;7.78;;;5.90;;
38935;SDS011;25541;47.458;9.644;2022-07-15T10:20:52;5.68;;;3.78;;
38935;SDS011;25541;47.458;9.644;2022-07-15T10:26:22;3.90;;;2.85;;
38935;SDS011;25541;47.458;9.644;2022-07-15T10:28:55;6.32;;;2.58;;
38935;SDS011;25541;47.458;9.644;2022-07-15T10:31:27;4.43;;;2.63;;
38935;SDS011;25541;47.458;9.644;2022-07-15T10:39:05;6.55;;;2.60;;
38935;SDS011;25541;47.458;9.644;2022-07-15T10:44:17;6.45;;;2.03;;
38935;SDS011;25541;47.458;9.644;2022-07-15T10:46:44;4.68;;;1.70;;
38935;SDS011;25541;47.458;9.644;2022-07-15T10:54:08;5.40;;;1.42;;
38935;SDS011;25541;47.458;9.644;2022-07-15T10:56:43;7.63;;;1.95;;
38935;SDS011;25541;47.458;9.644;2022-07-15T10:59:11;3.58;;;1.67;;
38935;SDS011;25541;47.458;9.644;2022-07-15T11:01:44;3.85;;;1.65;;
38935;SDS011;25541;47.458;9.644;2022-07-15T11:09:45;4.50;;;1.98;;
38935;SDS011;25541;47.458;9.644;2022-07-15T11:12:10;7.75;;;2.13;;
38935;SDS011;25541;47.458;9.644;2022-07-15T11:14:50;5.60;;;1.67;;
38935;SDS011;25541;47.458;9.644;2022-07-15T11:17:19;6.85;;;1.60;;
38935;SDS011;25541;47.458;9.644;2022-07-15T11:20:01;4.85;;;2.40;;
38935;SDS011;25541;47.458;9.644;2022-07-15T11:22:34;6.03;;;1.70;;
38935;SDS011;25541;47.458;9.644;2022-07-15T11:25:04;8.23;;;1.58;;
38935;SDS011;25541;47.458;9.644;2022-07-15T11:27:30;3.97;;;1.70;;
38935;SDS011;25541;47.458;9.644;2022-07-15T11:29:57;10.15;;;1.70;;
38935;SDS011;25541;47.458;9.644;2022-07-15T11:32:29;3.28;;;1.70;;
38935;SDS011;25541;47.458;9.644;2022-07-15T11:34:57;3.28;;;1.33;;
38935;SDS011;25541;47.458;9.644;2022-07-15T11:37:32;4.00;;;2.03;;
38935;SDS011;25541;47.458;9.644;2022-07-15T11:42:33;6.63;;;1.15;;
38935;SDS011;25541;47.458;9.644;2022-07-15T11:45:35;14.32;;;1.75;;
38935;SDS011;25541;47.458;9.644;2022-07-15T11:48:03;4.28;;;1.30;;
38935;SDS011;25541;47.458;9.644;2022-07-15T11:50:31;8.23;;;1.85;;
38935;SDS011;25541;47.458;9.644;2022-07-15T11:52:58;7.28;;;2.05;;
38935;SDS011;25541;47.458;9.644;2022-07-15T11:55:24;7.95;;;1.85;;
38935;SDS011;25541;47.458;9.644;2022-07-15T11:57:50;5.00;;;1.52;;
38935;SDS011;25541;47.458;9.644;2022-07-15T12:00:27;7.65;;;1.50;;
38935;SDS011;25541;47.458;9.644;2022-07-15T12:03:05;5.32;;;1.65;;
38935;SDS011;25541;47.458;9.644;2022-07-15T12:05:32;4.63;;;2.00;;
38935;SDS011;25541;47.458;9.644;2022-07-15T12:07:57;6.88;;;1.58;;
38935;SDS011;25541;47.458;9.644;2022-07-15T12:10:32;5.63;;;1.73;;
38935;SDS011;25541;47.458;9.644;2022-07-15T12:13:00;4.75;;;1.42;;
38935;SDS011;25541;47.458;9.644;2022-07-15T12:15:27;6.90;;;1.58;;
38935;SDS011;25541;47.458;9.644;2022-07-15T12:17:54;15.10;;;1.90;;
38935;SDS011;25541;47.458;9.644;2022-07-15T12:20:20;8.75;;;2.13;;
38935;SDS011;25541;47.458;9.644;2022-07-15T12:25:32;5.55;;;1.45;;
38935;SDS011;25541;47.458;9.644;2022-07-15T12:27:58;6.78;;;2.00;;
38935;SDS011;25541;47.458;9.644;2022-07-15T12:30:42;7.10;;;1.70;;
38935;SDS011;25541;47.458;9.644;2022-07-15T12:33:14;7.05;;;1.80;;
38935;SDS011;25541;47.458;9.644;2022-07-15T12:35:44;17.95;;;2.00;;
38935;SDS011;25541;47.458;9.644;2022-07-15T12:38:27;6.57;;;1.55;;
38935;SDS011;25541;47.458;9.644;2022-07-15T12:41:08;4.55;;;1.73;;
38935;SDS011;25541;47.458;9.644;2022-07-15T12:43:54;4.57;;;1.35;;
38935;SDS011;25541;47.458;9.644;2022-07-15T12:47:07;9.00;;;1.90;;
38935;SDS011;25541;47.458;9.644;2022-07-15T12:49:40;3.40;;;1.63;;
38935;SDS011;25541;47.458;9.644;2022-07-15T12:52:14;4.32;;;1.70;;
38935;SDS011;25541;47.458;9.644;2022-07-15T12:54:48;4.68;;;1.48;;
38935;SDS011;25541;47.458;9.644;2022-07-15T12:57:34;7.93;;;1.73;;
38935;SDS011;25541;47.458;9.644;2022-07-15T13:00:09;4.03;;;1.75;;
38935;SDS011;25541;47.458;9.644;2022-07-15T13:02:57;9.05;;;1.63;;
38935;SDS011;25541;47.458;9.644;2022-07-15T13:05:37;4.72;;;1.42;;
38935;SDS011;25541;47.458;9.644;2022-07-15T13:08:06;7.28;;;1.50;;
38935;SDS011;25541;47.458;9.644;2022-07-15T13:10:33;6.75;;;1.92;;
38935;SDS011;25541;47.458;9.644;2022-07-15T13:12:59;5.90;;;1.55;;
38935;SDS011;25541;47.458;9.644;2022-07-15T13:15:26;5.78;;;1.60;;
38935;SDS011;25541;47.458;9.644;2022-07-15T13:17:52;3.28;;;1.52;;
38935;SDS011;25541;47.458;9.644;2022-07-15T13:20:18;6.15;;;1.83;;
38935;SDS011;25541;47.458;9.644;2022-07-15T13:22:44;8.50;;;1.25;;
38935;SDS011;25541;47.458;9.644;2022-07-15T13:25:10;5.13;;;1.65;;
38935;SDS011;25541;47.458;9.644;2022-07-15T13:27:36;2.72;;;1.38;;
38935;SDS011;25541;47.458;9.644;2022-07-15T13:30:03;5.70;;;1.35;;
38935;SDS011;25541;47.458;9.644;2022-07-15T13:32:29;5.53;;;1.95;;
38935;SDS011;25541;47.458;9.644;2022-07-15T13:34:55;3.50;;;1.48;;
38935;SDS011;25541;47.458;9.644;2022-07-15T13:37:21;4.47;;;1.63;;
38935;SDS011;25541;47.458;9.644;2022-07-15T13:39:47;6.10;;;1.75;;
38935;SDS011;25541;47.458;9.644;2022-07-15T13:42:12;6.85;;;1.92;;
38935;SDS011;25541;47.458;9.644;2022-07-15T13:44:38;6.95;;;1.58;;
38935;SDS011;25541;47.458;9.644;2022-07-15T13:47:05;5.10;;;2.17;;
38935;SDS011;25541;47.458;9.644;2022-07-15T13:49:31;7.70;;;2.10;;
38935;SDS011;25541;47.458;9.644;2022-07-15T13:52:15;5.50;;;1.27;;
38935;SDS011;25541;47.458;9.644;2022-07-15T13:54:41;3.58;;;1.83;;
38935;SDS011;25541;47.458;9.644;2022-07-15T13:57:07;4.25;;;1.70;;
38935;SDS011;25541;47.458;9.644;2022-07-15T13:59:33;7.43;;;2.13;;
38935;SDS011;25541;47.458;9.644;2022-07-15T14:01:58;4.50;;;1.30;;
38935;SDS011;25541;47.458;9.644;2022-07-15T14:04:24;3.72;;;1.27;;
38935;SDS011;25541;47.458;9.644;2022-07-15T14:06:50;8.05;;;1.60;;
38935;SDS011;25541;47.458;9.644;2022-07-15T14:09:16;3.50;;;1.50;;
38935;SDS011;25541;47.458;9.644;2022-07-15T14:11:41;8.13;;;1.55;;
38935;SDS011;25541;47.458;9.644;2022-07-15T14:14:07;5.35;;;1.73;;
38935;SDS011;25541;47.458;9.644;2022-07-15T14:16:33;6.50;;;1.75;;
38935;SDS011;25541;47.458;9.644;2022-07-15T14:18:59;4.82;;;1.88;;
38935;SDS011;25541;47.458;9.644;2022-07-15T14:21:24;3.13;;;1.35;;
38935;SDS011;25541;47.458;9.644;2022-07-15T14:23:50;6.28;;;2.08;;
38935;SDS011;25541;47.458;9.644;2022-07-15T14:26:16;5.20;;;1.50;;
38935;SDS011;25541;47.458;9.644;2022-07-15T14:28:42;2.95;;;1.30;;
38935;SDS011;25541;47.458;9.644;2022-07-15T14:31:10;3.05;;;1.38;;
38935;SDS011;25541;47.458;9.644;2022-07-15T14:33:39;3.97;;;2.30;;
38935;SDS011;25541;47.458;9.644;2022-07-15T14:36:06;5.65;;;1.67;;
38935;SDS011;25541;47.458;9.644;2022-07-15T14:38:32;2.80;;;1.27;;
38935;SDS011;25541;47.458;9.644;2022-07-15T14:41:00;3.08;;;1.27;;
38935;SDS011;25541;47.458;9.644;2022-07-15T14:43:26;3.03;;;1.50;;
38935;SDS011;25541;47.458;9.644;2022-07-15T14:45:51;3.25;;;1.02;;
38935;SDS011;25541;47.458;9.644;2022-07-15T14:48:17;7.53;;;1.48;;
38935;SDS011;25541;47.458;9.644;2022-07-15T14:50:43;2.92;;;1.35;;
38935;SDS011;25541;47.458;9.644;2022-07-15T14:53:09;5.45;;;1.48;;
38935;SDS011;25541;47.458;9.644;2022-07-15T14:55:35;7.03;;;1.25;;
38935;SDS011;25541;47.458;9.644;2022-07-15T14:58:01;9.35;;;1.02;;
38935;SDS011;25541;47.458;9.644;2022-07-15T15:00:28;2.95;;;1.45;;
38935;SDS011;25541;47.458;9.644;2022-07-15T15:02:55;1.73;;;0.95;;
38935;SDS011;25541;47.458;9.644;2022-07-15T15:05:20;3.92;;;1.63;;
38935;SDS011;25541;47.458;9.644;2022-07-15T15:07:46;4.65;;;1.40;;
38935;SDS011;25541;47.458;9.644;2022-07-15T15:10:12;6.32;;;1.45;;
38935;SDS011;25541;47.458;9.644;2022-07-15T15:12:38;5.97;;;1.25;;
38935;SDS011;25541;47.458;9.644;2022-07-15T15:15:04;4.00;;;1.38;;
38935;SDS011;25541;47.458;9.644;2022-07-15T15:17:31;6.88;;;1.20;;
38935;SDS011;25541;47.458;9.644;2022-07-15T15:19:57;8.32;;;1.25;;
38935;SDS011;25541;47.458;9.644;2022-07-15T15:22:23;4.15;;;1.65;;
38935;SDS011;25541;47.458;9.644;2022-07-15T15:24:48;6.43;;;1.50;;
38935;SDS011;25541;47.458;9.644;2022-07-15T15:27:14;4.53;;;1.23;;
38935;SDS011;25541;47.458;9.644;2022-07-15T15:29:40;4.30;;;1.35;;
38935;SDS011;25541;47.458;9.644;2022-07-15T15:32:06;2.92;;;1.15;;
38935;SDS011;25541;47.458;9.644;2022-07-15T15:34:38;2.97;;;1.40;;
38935;SDS011;25541;47.458;9.644;2022-07-15T15:37:04;8.48;;;1.73;;
38935;SDS011;25541;47.458;9.644;2022-07-15T15:39:30;4.28;;;1.67;;
38935;SDS011;25541;47.458;9.644;2022-07-15T15:41:55;5.38;;;1.60;;
38935;SDS011;25541;47.458;9.644;2022-07-15T15:44:21;5.68;;;1.85;;
38935;SDS011;25541;47.458;9.644;2022-07-15T15:46:49;4.63;;;1.45;;
38935;SDS011;25541;47.458;9.644;2022-07-15T15:49:14;2.90;;;1.02;;
38935;SDS011;25541;47.458;9.644;2022-07-15T15:51:40;2.15;;;1.05;;
38935;SDS011;25541;47.458;9.644;2022-07-15T15:54:06;4.07;;;1.42;;
38935;SDS011;25541;47.458;9.644;2022-07-15T15:56:32;3.10;;;1.20;;
38935;SDS011;25541;47.458;9.644;2022-07-15T15:58:58;3.25;;;1.83;;
38935;SDS011;25541;47.458;9.644;2022-07-15T16:01:24;4.30;;;1.30;;
38935;SDS011;25541;47.458;9.644;2022-07-15T16:03:50;4.70;;;1.67;;
38935;SDS011;25541;47.458;9.644;2022-07-15T16:06:16;3.67;;;1.40;;
38935;SDS011;25541;47.458;9.644;2022-07-15T16:08:42;3.40;;;1.23;;
38935;SDS011;25541;47.458;9.644;2022-07-15T16:11:08;4.90;;;1.25;;
38935;SDS011;25541;47.458;9.644;2022-07-15T16:13:33;5.85;;;1.55;;
38935;SDS011;25541;47.458;9.644;2022-07-15T16:15:59;5.88;;;1.75;;
38935;SDS011;25541;47.458;9.644;2022-07-15T16:18:25;4.70;;;1.35;;
38935;SDS011;25541;47.458;9.644;2022-07-15T16:20:51;6.15;;;1.33;;
38935;SDS011;25541;47.458;9.644;2022-07-15T16:23:17;3.22;;;1.42;;
38935;SDS011;25541;47.458;9.644;2022-07-15T16:25:44;2.97;;;1.67;;
38935;SDS011;25541;47.458;9.644;2022-07-15T16:28:10;3.28;;;1.45;;
38935;SDS011;25541;47.458;9.644;2022-07-15T16:30:38;3.08;;;1.55;;
38935;SDS011;25541;47.458;9.644;2022-07-15T16:33:05;2.78;;;1.42;;
38935;SDS011;25541;47.458;9.644;2022-07-15T16:35:31;2.95;;;1.88;;
38935;SDS011;25541;47.458;9.644;2022-07-15T16:37:58;4.95;;;1.55;;
38935;SDS011;25541;47.458;9.644;2022-07-15T16:40:25;3.13;;;1.05;;
38935;SDS011;25541;47.458;9.644;2022-07-15T16:42:51;5.05;;;1.50;;
38935;SDS011;25541;47.458;9.644;2022-07-15T16:45:17;3.70;;;1.48;;
38935;SDS011;25541;47.458;9.644;2022-07-15T16:47:43;5.35;;;1.63;;
38935;SDS011;25541;47.458;9.644;2022-07-15T16:50:10;3.28;;;1.15;;
38935;SDS011;25541;47.458;9.644;2022-07-15T16:52:36;4.95;;;1.30;;
38935;SDS011;25541;47.458;9.644;2022-07-15T16:55:03;2.88;;;1.73;;
38935;SDS011;25541;47.458;9.644;2022-07-15T16:57:30;4.47;;;1.60;;
38935;SDS011;25541;47.458;9.644;2022-07-15T16:59:56;4.80;;;1.70;;
38935;SDS011;25541;47.458;9.644;2022-07-15T17:02:22;5.57;;;1.25;;
38935;SDS011;25541;47.458;9.644;2022-07-15T17:04:48;6.85;;;1.40;;
38935;SDS011;25541;47.458;9.644;2022-07-15T17:07:14;2.75;;;1.40;;
38935;SDS011;25541;47.458;9.644;2022-07-15T17:09:40;4.05;;;1.60;;
38935;SDS011;25541;47.458;9.644;2022-07-15T17:12:06;3.47;;;1.48;;
38935;SDS011;25541;47.458;9.644;2022-07-15T17:14:33;6.32;;;1.30;;
38935;SDS011;25541;47.458;9.644;2022-07-15T17:16:59;4.47;;;1.23;;
38935;SDS011;25541;47.458;9.644;2022-07-15T17:19:25;6.88;;;1.88;;
38935;SDS011;25541;47.458;9.644;2022-07-15T17:21:52;6.38;;;1.60;;
38935;SDS011;25541;47.458;9.644;2022-07-15T17:24:19;4.07;;;1.63;;
38935;SDS011;25541;47.458;9.644;2022-07-15T17:26:45;4.20;;;1.40;;
38935;SDS011;25541;47.458;9.644;2022-07-15T17:29:11;5.68;;;1.75;;
38935;SDS011;25541;47.458;9.644;2022-07-15T17:31:37;4.30;;;1.35;;
38935;SDS011;25541;47.458;9.644;2022-07-15T17:34:03;4.18;;;1.42;;
38935;SDS011;25541;47.458;9.644;2022-07-15T17:36:30;4.00;;;1.27;;
38935;SDS011;25541;47.458;9.644;2022-07-15T17:38:57;5.35;;;1.50;;
38935;SDS011;25541;47.458;9.644;2022-07-15T17:41:23;4.93;;;1.48;;
38935;SDS011;25541;47.458;9.644;2022-07-15T17:43:50;5.47;;;1.50;;
38935;SDS011;25541;47.458;9.644;2022-07-15T17:46:15;3.33;;;1.42;;
38935;SDS011;25541;47.458;9.644;2022-07-15T17:48:42;3.90;;;1.35;;
38935;SDS011;25541;47.458;9.644;2022-07-15T17:51:09;4.57;;;1.63;;
38935;SDS011;25541;47.458;9.644;2022-07-15T17:53:35;5.35;;;1.20;;
38935;SDS011;25541;47.458;9.644;2022-07-15T17:56:01;4.15;;;1.48;;
38935;SDS011;25541;47.458;9.644;2022-07-15T17:58:27;3.50;;;1.45;;
38935;SDS011;25541;47.458;9.644;2022-07-15T18:00:53;3.88;;;1.20;;
38935;SDS011;25541;47.458;9.644;2022-07-15T18:03:19;2.20;;;0.90;;
38935;SDS011;25541;47.458;9.644;2022-07-15T18:05:45;6.65;;;1.50;;
38935;SDS011;25541;47.458;9.644;2022-07-15T18:08:12;4.78;;;1.48;;
38935;SDS011;25541;47.458;9.644;2022-07-15T18:10:38;5.65;;;1.48;;
38935;SDS011;25541;47.458;9.644;2022-07-15T18:13:04;2.83;;;1.42;;
38935;SDS011;25541;47.458;9.644;2022-07-15T18:15:29;3.45;;;1.60;;
38935;SDS011;25541;47.458;9.644;2022-07-15T18:17:55;3.13;;;1.23;;